Time;durP1;ratioP1;P1;durP2;ratioP2;P2;SDS_P1;SDS_P2;PMS_P1;PMS_P2;Temp;Humidity;BMP_temperature;BMP_pressure;BME280_temperature;BME280_humidity;BME280_pressure;Samples;Min_cycle;Max_cycle;Signal;HPM_P1;HPM_P2
2023/03/21 00:00:57;;;;;;;32.85;19.42;;;8.60;99.90;;;;;;5052157;28;20523;-73
2023/03/21 00:03:23;;;;;;;33.20;19.13;;;8.70;99.90;;;;;;5048934;28;20045;-72
2023/03/21 00:05:52;;;;;;;34.83;20.27;;;8.70;99.90;;;;;;5018455;28;20098;-71
2023/03/21 00:08:19;;;;;;;30.85;17.40;;;8.70;99.90;;;;;;5034904;28;20047;-71
2023/03/21 00:10:45;;;;;;;34.45;19.80;;;8.70;99.90;;;;;;5051409;28;20052;-71
2023/03/21 00:13:12;;;;;;;32.25;19.30;;;8.70;99.90;;;;;;5034186;28;20045;-71
2023/03/21 00:15:48;;;;;;;33.53;18.85;;;8.70;99.90;;;;;;5052027;28;20045;-71
2023/03/21 00:18:16;;;;;;;34.70;20.35;;;8.70;99.90;;;;;;5066865;28;20371;-72
2023/03/21 00:20:45;;;;;;;38.28;20.80;;;8.70;99.90;;;;;;5052329;28;20041;-71
2023/03/21 00:23:11;;;;;;;35.92;19.90;;;8.70;99.90;;;;;;5067221;28;20049;-71
2023/03/21 00:25:36;;;;;;;37.00;18.80;;;8.80;99.90;;;;;;5068338;28;20047;-72
2023/03/21 00:28:02;;;;;;;35.40;18.77;;;8.70;99.90;;;;;;5052254;28;20053;-71
2023/03/21 00:30:28;;;;;;;38.67;21.40;;;8.70;99.90;;;;;;5052131;28;20128;-71
2023/03/21 00:32:54;;;;;;;36.25;21.55;;;8.70;99.90;;;;;;5051350;28;20048;-71
2023/03/21 00:35:19;;;;;;;37.78;20.20;;;8.70;99.90;;;;;;5051731;28;20120;-71
2023/03/21 00:37:45;;;;;;;35.35;20.85;;;8.70;99.90;;;;;;5051899;28;20127;-72
2023/03/21 00:40:12;;;;;;;34.45;18.77;;;8.70;99.90;;;;;;5052270;28;20053;-71
2023/03/21 00:42:38;;;;;;;34.42;20.35;;;8.80;99.90;;;;;;5054779;28;20406;-71
2023/03/21 00:45:06;;;;;;;35.03;18.95;;;8.80;99.90;;;;;;5051168;28;20057;-71
2023/03/21 00:47:31;;;;;;;40.33;20.25;;;8.80;99.90;;;;;;5057445;28;20048;-71
2023/03/21 00:49:57;;;;;;;35.33;20.33;;;8.80;99.90;;;;;;5052090;28;20421;-71
2023/03/21 00:52:23;;;;;;;35.70;19.58;;;8.80;99.90;;;;;;5051702;28;20040;-72
2023/03/21 00:54:49;;;;;;;35.17;18.83;;;8.80;99.90;;;;;;5017153;28;20060;-71
2023/03/21 00:57:15;;;;;;;36.53;19.23;;;8.80;99.90;;;;;;5051942;28;20056;-71
2023/03/21 00:59:40;;;;;;;34.10;18.33;;;8.80;99.90;;;;;;5033108;28;20045;-71
2023/03/21 01:02:06;;;;;;;32.03;18.20;;;8.80;99.90;;;;;;5051398;28;20072;-71
2023/03/21 01:04:33;;;;;;;35.85;19.98;;;8.80;99.90;;;;;;5064068;28;20041;-71
2023/03/21 01:06:59;;;;;;;37.58;19.48;;;8.80;99.90;;;;;;5051769;28;20048;-71
2023/03/21 01:09:25;;;;;;;34.42;18.67;;;8.70;99.90;;;;;;5034020;28;20389;-71
2023/03/21 01:11:52;;;;;;;34.30;18.83;;;8.80;99.90;;;;;;5033595;28;20055;-71
2023/03/21 01:14:20;;;;;;;33.45;18.00;;;8.80;99.90;;;;;;5051222;28;20102;-71
2023/03/21 01:16:46;;;;;;;32.17;18.25;;;8.80;99.90;;;;;;5033973;28;20076;-71
2023/03/21 01:19:17;;;;;;;37.55;20.25;;;8.80;99.90;;;;;;5051622;28;20041;-71
2023/03/21 01:21:43;;;;;;;32.22;17.50;;;8.80;99.90;;;;;;5051607;28;20045;-71
2023/03/21 01:24:09;;;;;;;33.70;19.10;;;8.70;99.90;;;;;;5051219;28;20044;-72
2023/03/21 01:26:36;;;;;;;37.05;18.85;;;8.80;99.90;;;;;;5050514;28;20049;-71
2023/03/21 01:29:03;;;;;;;34.67;17.77;;;8.80;99.90;;;;;;5050817;28;20045;-71
2023/03/21 01:31:29;;;;;;;35.10;19.20;;;8.80;99.90;;;;;;5040704;28;20049;-71
2023/03/21 01:33:54;;;;;;;38.90;20.33;;;8.80;99.90;;;;;;5033848;28;20048;-71
2023/03/21 01:36:24;;;;;;;37.35;20.42;;;8.80;99.90;;;;;;5051237;28;20120;-71
2023/03/21 01:38:49;;;;;;;32.20;16.08;;;8.90;99.90;;;;;;5033494;28;20063;-71
2023/03/21 01:41:27;;;;;;;35.53;18.85;;;8.80;99.90;;;;;;5053143;28;20036;-71
2023/03/21 01:43:54;;;;;;;35.58;18.15;;;8.80;99.90;;;;;;5037272;28;20055;-71
2023/03/21 01:46:21;;;;;;;30.85;18.33;;;8.90;99.90;;;;;;5049248;28;20075;-71
2023/03/21 01:49:28;;;;;;;30.35;16.23;;;8.90;99.90;;;;;;5050016;28;20123;-71
2023/03/21 02:03:28;;;;;;;35.40;19.25;;;8.90;99.90;;;;;;5078770;28;20065;-77
2023/03/21 02:06:14;;;;;;;36.78;18.65;;;8.90;99.90;;;;;;5062536;28;20052;-77
2023/03/21 02:08:40;;;;;;;37.42;20.98;;;9.00;99.90;;;;;;5085190;28;20081;-78
2023/03/21 02:11:08;;;;;;;32.83;17.98;;;9.00;99.90;;;;;;5090510;28;20101;-76
2023/03/21 02:13:35;;;;;;;35.17;16.73;;;9.00;99.90;;;;;;5075788;28;20105;-76
2023/03/21 02:16:04;;;;;;;29.58;14.85;;;9.00;99.90;;;;;;5090722;28;20066;-77
2023/03/21 02:18:38;;;;;;;29.30;15.43;;;9.00;99.90;;;;;;5090511;28;20050;-77
2023/03/21 02:21:35;;;;;;;29.73;15.93;;;9.10;99.90;;;;;;5090543;28;20052;-76
2023/03/21 02:24:19;;;;;;;28.50;14.40;;;9.10;99.90;;;;;;5071156;28;20080;-77
2023/03/21 02:27:09;;;;;;;28.73;16.05;;;9.10;99.90;;;;;;5087277;28;20131;-77
2023/03/21 02:30:00;;;;;;;28.23;13.88;;;9.10;99.90;;;;;;5090024;28;20056;-77
2023/03/21 02:32:28;;;;;;;30.63;15.68;;;9.10;99.90;;;;;;5087469;28;20505;-78
2023/03/21 02:35:13;;;;;;;26.90;14.90;;;9.10;99.90;;;;;;5089556;28;20067;-76
2023/03/21 02:37:47;;;;;;;29.10;16.50;;;9.10;99.90;;;;;;5088558;28;20580;-77
2023/03/21 02:40:21;;;;;;;28.02;15.18;;;9.10;99.90;;;;;;5089176;28;20487;-78
2023/03/21 02:43:12;;;;;;;28.92;16.67;;;9.20;99.90;;;;;;5089925;28;20059;-77
2023/03/21 02:45:46;;;;;;;27.20;14.75;;;9.20;99.90;;;;;;5090069;28;20048;-77
2023/03/21 02:48:18;;;;;;;30.02;16.17;;;9.10;99.90;;;;;;5088942;28;20126;-77
2023/03/21 02:50:52;;;;;;;24.35;13.75;;;9.10;99.90;;;;;;5089161;28;20583;-78
2023/03/21 02:53:24;;;;;;;23.27;13.32;;;9.10;99.90;;;;;;5086311;28;20047;-78
2023/03/21 02:55:52;;;;;;;24.25;12.90;;;9.20;99.90;;;;;;5090518;28;20132;-76
2023/03/21 02:58:24;;;;;;;24.30;12.32;;;9.10;99.90;;;;;;5092038;28;20588;-77
2023/03/21 03:00:54;;;;;;;23.45;13.05;;;9.20;99.90;;;;;;5093690;28;20052;-78
2023/03/21 03:03:20;;;;;;;23.45;12.43;;;9.10;99.90;;;;;;5083682;28;20060;-77
2023/03/21 03:05:54;;;;;;;25.83;12.27;;;9.10;99.90;;;;;;5094142;28;20128;-77
2023/03/21 03:08:41;;;;;;;21.95;13.57;;;9.20;99.90;;;;;;5086496;28;20500;-76
2023/03/21 03:11:36;;;;;;;20.20;11.93;;;9.10;99.90;;;;;;5093638;28;20040;-76
2023/03/21 03:14:28;;;;;;;22.80;12.30;;;9.10;99.90;;;;;;5093369;28;20088;-77
2023/03/21 03:17:09;;;;;;;20.33;12.50;;;9.20;99.90;;;;;;5093812;28;20131;-77
2023/03/21 03:20:05;;;;;;;20.52;12.48;;;9.10;99.90;;;;;;5093681;28;20114;-77
2023/03/21 03:22:46;;;;;;;19.40;10.77;;;9.10;99.90;;;;;;5084620;28;20074;-79
2023/03/21 03:25:18;;;;;;;22.83;12.90;;;9.10;99.90;;;;;;5093394;28;20297;-76
2023/03/21 03:27:48;;;;;;;20.13;12.50;;;9.10;99.90;;;;;;5092769;28;20130;-78
2023/03/21 03:30:15;;;;;;;21.27;12.15;;;9.10;99.90;;;;;;5093830;28;20043;-77
2023/03/21 03:32:49;;;;;;;21.00;11.15;;;9.10;99.90;;;;;;5093319;28;20059;-78
2023/03/21 03:35:18;;;;;;;19.25;11.52;;;9.10;99.90;;;;;;5091891;28;20036;-77
2023/03/21 03:37:48;;;;;;;18.67;11.07;;;9.00;99.90;;;;;;5090989;28;20048;-78
2023/03/21 03:40:17;;;;;;;18.00;10.75;;;9.00;99.90;;;;;;5093530;28;20133;-79
2023/03/21 03:42:55;;;;;;;18.80;10.75;;;9.10;99.90;;;;;;5078249;28;20456;-78
2023/03/21 03:45:29;;;;;;;20.52;11.43;;;9.10;99.90;;;;;;5093893;28;20048;-77
2023/03/21 03:48:12;;;;;;;18.80;10.43;;;9.00;99.90;;;;;;5081239;28;20630;-78
2023/03/21 03:50:43;;;;;;;17.45;11.00;;;9.10;99.90;;;;;;5081420;28;20044;-78
2023/03/21 03:53:27;;;;;;;18.83;11.25;;;9.10;99.90;;;;;;5093538;28;20075;-77
2023/03/21 03:55:55;;;;;;;19.40;11.25;;;9.10;99.90;;;;;;5093694;28;20098;-77
2023/03/21 03:58:22;;;;;;;17.55;10.63;;;9.10;99.90;;;;;;5092806;28;20480;-78
2023/03/21 04:00:49;;;;;;;18.33;11.13;;;9.10;99.90;;;;;;5092314;28;20067;-78
2023/03/21 04:03:14;;;;;;;17.98;10.43;;;9.00;99.90;;;;;;5092179;28;20401;-78
2023/03/21 04:05:40;;;;;;;21.73;12.65;;;9.10;99.90;;;;;;5092804;28;20044;-78
2023/03/21 04:08:07;;;;;;;21.00;11.82;;;9.10;99.90;;;;;;5091931;28;20044;-79
2023/03/21 04:10:33;;;;;;;20.15;11.18;;;9.10;99.90;;;;;;5091944;28;20055;-78
2023/03/21 04:12:59;;;;;;;21.25;14.02;;;9.10;99.90;;;;;;5092435;28;20044;-78
2023/03/21 04:15:25;;;;;;;22.88;13.18;;;9.10;99.90;;;;;;5091358;28;20048;-77
2023/03/21 04:17:50;;;;;;;24.25;13.75;;;9.10;99.90;;;;;;5092417;28;20125;-77
2023/03/21 04:20:16;;;;;;;20.40;12.55;;;9.10;99.90;;;;;;5092445;28;20048;-77
2023/03/21 04:22:42;;;;;;;22.08;12.15;;;9.10;99.90;;;;;;5092432;28;20507;-77
2023/03/21 04:25:08;;;;;;;21.52;13.00;;;9.10;99.90;;;;;;5092252;28;20048;-78
2023/03/21 04:27:34;;;;;;;23.08;12.85;;;9.10;99.90;;;;;;5092899;28;20093;-78
2023/03/21 04:29:59;;;;;;;21.70;13.55;;;9.10;99.90;;;;;;5089877;28;20047;-78
2023/03/21 04:32:26;;;;;;;20.60;12.90;;;9.10;99.90;;;;;;5086703;28;20455;-79
2023/03/21 04:34:53;;;;;;;19.95;11.93;;;9.10;99.90;;;;;;5089636;28;20047;-78
2023/03/21 04:37:26;;;;;;;23.02;13.55;;;9.10;99.90;;;;;;5089615;28;20055;-78
2023/03/21 04:39:52;;;;;;;25.23;14.25;;;9.10;99.90;;;;;;5091027;28;20071;-79
2023/03/21 04:42:19;;;;;;;23.58;12.57;;;9.00;99.90;;;;;;5092565;28;20051;-79
2023/03/21 04:44:48;;;;;;;22.42;13.57;;;9.10;99.90;;;;;;5092834;28;20079;-78
2023/03/21 04:47:14;;;;;;;21.08;11.55;;;9.00;99.90;;;;;;5088632;28;20044;-78
2023/03/21 04:49:43;;;;;;;27.08;15.82;;;9.00;99.90;;;;;;5090070;28;20056;-77
2023/03/21 04:52:09;;;;;;;24.23;14.15;;;9.10;99.90;;;;;;5090800;28;20048;-78
2023/03/21 04:54:35;;;;;;;27.52;14.70;;;9.00;99.90;;;;;;5090903;28;20055;-79
2023/03/21 04:57:00;;;;;;;23.40;13.77;;;9.00;99.90;;;;;;5074049;28;20493;-78
2023/03/21 04:59:26;;;;;;;26.73;14.95;;;9.00;99.90;;;;;;5090685;28;20434;-78
2023/03/21 05:01:52;;;;;;;28.13;14.82;;;9.00;99.90;;;;;;5090807;28;20067;-79
2023/03/21 05:04:19;;;;;;;21.20;12.60;;;9.00;99.90;;;;;;5092251;28;20055;-77
2023/03/21 05:06:45;;;;;;;24.15;13.60;;;9.00;99.90;;;;;;5090884;28;20127;-79
2023/03/21 05:09:12;;;;;;;29.35;15.80;;;9.00;99.90;;;;;;5091847;28;20075;-78
2023/03/21 05:11:39;;;;;;;26.83;14.50;;;8.90;99.90;;;;;;5091413;28;20044;-78
2023/03/21 05:14:12;;;;;;;28.75;15.00;;;9.00;99.90;;;;;;5091041;28;20044;-78
2023/03/21 05:16:47;;;;;;;31.75;16.38;;;9.00;99.90;;;;;;5091180;28;20048;-79
2023/03/21 05:19:14;;;;;;;26.25;14.45;;;8.90;99.90;;;;;;5091256;28;20048;-78
2023/03/21 05:21:40;;;;;;;28.25;15.70;;;8.90;99.90;;;;;;5091753;28;20083;-78
2023/03/21 05:24:13;;;;;;;23.50;14.10;;;8.90;99.90;;;;;;5072901;28;20059;-78
2023/03/21 05:26:39;;;;;;;25.85;14.68;;;9.00;99.90;;;;;;5090865;28;20048;-78
2023/03/21 05:29:06;;;;;;;26.00;14.82;;;9.00;99.90;;;;;;5089964;28;20548;-78
2023/03/21 05:31:31;;;;;;;25.23;14.60;;;8.90;99.90;;;;;;5090745;28;20499;-78
2023/03/21 05:33:57;;;;;;;24.90;13.75;;;8.90;99.90;;;;;;5091723;28;20039;-78
2023/03/21 05:36:23;;;;;;;25.58;13.73;;;8.90;99.90;;;;;;5091234;28;20047;-78
2023/03/21 05:38:48;;;;;;;24.65;14.77;;;8.90;99.90;;;;;;5091251;28;20044;-79
2023/03/21 05:41:15;;;;;;;22.48;13.48;;;8.90;99.90;;;;;;5089939;28;20496;-78
2023/03/21 05:43:41;;;;;;;26.38;14.40;;;8.90;99.90;;;;;;5091207;28;20035;-78
2023/03/21 05:46:07;;;;;;;23.85;13.70;;;8.90;99.90;;;;;;5090986;28;20473;-78
2023/03/21 05:48:34;;;;;;;26.15;14.45;;;8.90;99.90;;;;;;5090407;28;20044;-78
2023/03/21 05:51:00;;;;;;;26.65;14.32;;;8.90;99.90;;;;;;5090759;28;20063;-78
2023/03/21 05:53:26;;;;;;;21.58;12.75;;;8.90;99.90;;;;;;5091177;28;20050;-78
2023/03/21 05:55:52;;;;;;;24.52;14.68;;;8.90;99.90;;;;;;5092283;28;20055;-78
2023/03/21 05:58:18;;;;;;;24.67;12.70;;;8.90;99.90;;;;;;5090522;28;20393;-79
2023/03/21 06:00:44;;;;;;;23.50;13.68;;;8.90;99.90;;;;;;5084644;28;20067;-78
2023/03/21 06:03:09;;;;;;;25.73;14.43;;;9.00;99.90;;;;;;5087954;28;20063;-78
2023/03/21 06:05:35;;;;;;;21.90;12.65;;;8.90;99.90;;;;;;5090195;28;20044;-78
2023/03/21 06:08:01;;;;;;;24.27;14.65;;;8.90;99.90;;;;;;5090085;28;20036;-78
2023/03/21 06:10:27;;;;;;;24.15;13.70;;;8.90;99.90;;;;;;5089000;28;20477;-79
2023/03/21 06:12:53;;;;;;;23.30;13.05;;;8.90;99.90;;;;;;5090301;28;20126;-78
2023/03/21 06:15:19;;;;;;;24.23;13.35;;;8.90;99.90;;;;;;5089538;28;20036;-77
2023/03/21 06:17:44;;;;;;;22.05;12.50;;;8.90;99.90;;;;;;5089413;28;20055;-79
2023/03/21 06:20:11;;;;;;;20.25;13.70;;;8.90;99.90;;;;;;5088935;28;20048;-79
2023/03/21 06:22:37;;;;;;;24.08;13.68;;;8.90;99.90;;;;;;5090507;28;20044;-78
2023/03/21 06:25:04;;;;;;;21.83;13.90;;;8.90;99.90;;;;;;5090245;28;20501;-78
2023/03/21 06:27:29;;;;;;;21.83;12.57;;;8.90;99.90;;;;;;5090074;28;20558;-79
2023/03/21 06:29:58;;;;;;;22.00;13.13;;;8.90;99.90;;;;;;5088838;28;20080;-79
2023/03/21 06:32:27;;;;;;;24.88;13.52;;;8.90;99.90;;;;;;5090467;28;20036;-79
2023/03/21 06:34:53;;;;;;;22.48;13.02;;;8.90;99.90;;;;;;5091437;28;20397;-78
2023/03/21 06:37:19;;;;;;;21.75;12.07;;;9.00;99.90;;;;;;5093031;28;20047;-78
2023/03/21 06:39:45;;;;;;;21.45;12.68;;;8.90;99.90;;;;;;5093462;28;20142;-78
2023/03/21 06:42:12;;;;;;;23.60;13.43;;;9.00;99.90;;;;;;5093498;28;20055;-78
2023/03/21 06:44:38;;;;;;;21.20;12.82;;;9.00;99.90;;;;;;5092569;28;20113;-78
2023/03/21 06:47:04;;;;;;;19.92;11.93;;;9.00;99.90;;;;;;5092865;28;20522;-78
2023/03/21 06:49:30;;;;;;;22.42;12.55;;;9.00;99.90;;;;;;5093111;28;20055;-78
2023/03/21 06:51:56;;;;;;;19.73;12.18;;;9.00;99.90;;;;;;5092875;28;20059;-78
2023/03/21 06:54:21;;;;;;;19.10;11.38;;;9.00;99.90;;;;;;5092200;28;20411;-78
2023/03/21 06:56:47;;;;;;;18.13;10.60;;;9.00;99.90;;;;;;5093270;28;20051;-79
2023/03/21 06:59:13;;;;;;;21.70;11.70;;;9.00;99.90;;;;;;5092967;28;20047;-78
2023/03/21 07:01:39;;;;;;;22.17;12.40;;;9.00;99.90;;;;;;5092635;28;20048;-77
2023/03/21 07:04:05;;;;;;;18.92;11.68;;;9.00;99.90;;;;;;5054924;28;1106915;-76
2023/03/21 07:06:31;;;;;;;18.10;11.13;;;9.10;99.90;;;;;;5094372;28;20101;-78
2023/03/21 07:08:57;;;;;;;18.77;11.88;;;9.10;99.90;;;;;;5093010;28;20054;-78
2023/03/21 07:11:23;;;;;;;21.20;11.27;;;9.10;99.90;;;;;;5094121;28;20123;-66
2023/03/21 07:13:49;;;;;;;18.58;10.65;;;9.10;99.90;;;;;;5094017;28;20048;-66
2023/03/21 07:16:16;;;;;;;18.63;11.13;;;9.10;99.90;;;;;;5094035;28;20048;-67
2023/03/21 07:18:42;;;;;;;16.92;10.23;;;9.10;99.90;;;;;;5092786;28;20048;-67
2023/03/21 07:21:08;;;;;;;16.45;10.93;;;9.20;99.90;;;;;;5094123;28;20499;-66
2023/03/21 07:23:34;;;;;;;16.80;9.93;;;9.20;99.90;;;;;;5094124;28;20052;-66
2023/03/21 07:26:00;;;;;;;14.88;10.10;;;9.20;99.90;;;;;;5094220;28;20105;-66
2023/03/21 07:28:26;;;;;;;15.98;9.77;;;9.20;99.90;;;;;;5093244;28;20119;-66
2023/03/21 07:30:58;;;;;;;15.13;10.05;;;9.20;99.90;;;;;;5093734;28;20109;-66
2023/03/21 07:33:24;;;;;;;15.88;10.38;;;9.10;99.90;;;;;;5093272;28;20054;-66
2023/03/21 07:35:51;;;;;;;15.77;10.25;;;9.20;99.90;;;;;;5093546;28;20054;-67
2023/03/21 07:38:18;;;;;;;15.50;9.48;;;9.10;99.90;;;;;;5093561;28;20043;-67
2023/03/21 07:40:46;;;;;;;15.95;10.85;;;9.10;99.90;;;;;;5093960;28;20048;-66
2023/03/21 07:43:12;;;;;;;15.68;10.13;;;9.10;99.90;;;;;;5093033;28;20442;-66
2023/03/21 07:45:38;;;;;;;16.58;9.77;;;9.10;99.90;;;;;;5093565;28;20437;-66
2023/03/21 07:48:04;;;;;;;16.38;10.60;;;9.10;99.90;;;;;;5093730;28;20131;-66
2023/03/21 07:50:30;;;;;;;17.20;10.00;;;9.10;99.90;;;;;;5093148;28;20043;-66
2023/03/21 07:52:56;;;;;;;13.73;9.57;;;9.10;99.90;;;;;;5093665;28;20051;-66
2023/03/21 07:55:21;;;;;;;15.00;10.05;;;9.10;99.90;;;;;;5093601;28;20044;-66
2023/03/21 07:57:50;;;;;;;16.90;10.35;;;9.10;99.90;;;;;;5084737;28;20040;-77
2023/03/21 08:00:21;;;;;;;17.63;11.25;;;9.10;99.90;;;;;;5091947;28;20048;-77
2023/03/21 08:02:54;;;;;;;14.27;9.50;;;9.10;99.90;;;;;;5088959;28;20069;-78
2023/03/21 08:05:29;;;;;;;14.77;9.27;;;9.20;99.90;;;;;;5090421;28;20040;-78
2023/03/21 08:07:55;;;;;;;14.38;10.18;;;9.10;99.90;;;;;;5078646;28;20059;-76
2023/03/21 08:10:21;;;;;;;16.67;11.43;;;9.10;99.90;;;;;;5090996;28;20123;-77
2023/03/21 08:12:47;;;;;;;16.70;10.25;;;9.10;99.90;;;;;;5090363;28;20124;-77
2023/03/21 08:15:13;;;;;;;16.10;10.85;;;9.10;99.90;;;;;;5086446;28;20071;-78
2023/03/21 08:17:40;;;;;;;18.20;12.02;;;9.10;99.90;;;;;;5092245;28;20051;-75
2023/03/21 08:20:08;;;;;;;14.73;10.52;;;9.10;99.90;;;;;;5092064;28;20040;-76
2023/03/21 08:22:35;;;;;;;15.15;10.48;;;9.10;99.90;;;;;;5074350;28;20040;-76
2023/03/21 08:25:04;;;;;;;17.42;10.32;;;9.10;99.90;;;;;;5092849;28;20044;-77
2023/03/21 08:27:30;;;;;;;16.92;10.80;;;9.10;99.90;;;;;;5091708;28;20083;-77
2023/03/21 08:29:57;;;;;;;14.05;9.50;;;9.10;99.90;;;;;;5092400;28;20052;-78
2023/03/21 08:32:28;;;;;;;16.50;10.60;;;9.20;99.90;;;;;;5091588;28;20043;-77
2023/03/21 08:34:59;;;;;;;18.65;10.75;;;9.20;99.90;;;;;;5090976;28;20091;-77
2023/03/21 08:37:26;;;;;;;14.90;9.20;;;9.20;99.90;;;;;;5092173;28;20076;-76
2023/03/21 08:39:52;;;;;;;15.57;10.40;;;9.20;99.90;;;;;;5091328;28;20048;-76
2023/03/21 08:42:18;;;;;;;15.38;10.27;;;9.20;99.90;;;;;;5087139;28;20139;-77
2023/03/21 08:44:44;;;;;;;16.70;9.38;;;9.30;99.90;;;;;;5092548;28;20063;-77
2023/03/21 08:47:10;;;;;;;16.08;9.98;;;9.30;99.90;;;;;;5092224;28;20642;-76
2023/03/21 08:49:36;;;;;;;15.60;9.73;;;9.30;99.90;;;;;;5091623;28;20043;-76
2023/03/21 08:52:02;;;;;;;14.73;9.27;;;9.30;99.90;;;;;;5086885;28;20054;-76
2023/03/21 08:54:27;;;;;;;15.88;9.68;;;9.30;99.90;;;;;;5091216;28;20040;-78
2023/03/21 08:56:53;;;;;;;13.98;10.02;;;9.30;99.90;;;;;;5091388;28;20047;-78
2023/03/21 08:59:19;;;;;;;15.35;10.68;;;9.30;99.90;;;;;;5092095;28;20519;-77
2023/03/21 09:01:45;;;;;;;15.15;10.13;;;9.40;99.90;;;;;;5090858;28;20496;-77
2023/03/21 09:04:12;;;;;;;15.30;10.57;;;9.40;99.90;;;;;;5091417;28;20056;-78
2023/03/21 09:06:44;;;;;;;15.93;10.60;;;9.30;99.90;;;;;;5091488;28;20392;-77
2023/03/21 09:09:11;;;;;;;15.10;9.55;;;9.40;99.90;;;;;;5091876;28;20056;-77
2023/03/21 09:11:37;;;;;;;17.35;10.90;;;9.40;99.90;;;;;;5090932;28;20377;-78
2023/03/21 09:14:03;;;;;;;17.80;11.30;;;9.40;99.90;;;;;;5091535;28;20062;-78
2023/03/21 09:16:29;;;;;;;16.67;9.90;;;9.40;99.90;;;;;;5089791;28;20549;-78
2023/03/21 09:18:55;;;;;;;16.90;11.50;;;9.40;99.90;;;;;;5091173;28;20051;-77
2023/03/21 09:21:23;;;;;;;18.45;10.82;;;9.50;99.90;;;;;;5091236;28;20048;-76
2023/03/21 09:23:51;;;;;;;16.08;10.57;;;9.50;99.90;;;;;;5091514;28;20480;-77
2023/03/21 09:26:18;;;;;;;18.23;10.93;;;9.50;99.90;;;;;;5090579;28;20130;-78
2023/03/21 09:28:45;;;;;;;16.30;9.60;;;9.40;99.90;;;;;;5091173;28;20040;-77
2023/03/21 09:31:13;;;;;;;18.02;11.27;;;9.50;99.90;;;;;;5091215;28;20048;-78
2023/03/21 09:33:39;;;;;;;19.27;10.55;;;9.50;99.90;;;;;;5090029;28;20054;-80
2023/03/21 09:36:10;;;;;;;17.63;10.93;;;9.50;99.90;;;;;;5091173;28;20040;-77
2023/03/21 09:38:38;;;;;;;17.52;10.15;;;9.40;99.90;;;;;;5091170;28;20043;-77
2023/03/21 09:41:28;;;;;;;18.85;9.32;;;9.50;99.90;;;;;;5090856;28;20087;-77
2023/03/21 09:43:54;;;;;;;16.58;10.30;;;9.50;99.90;;;;;;5084157;28;20044;-76
2023/03/21 09:46:58;;;;;;;15.15;9.88;;;9.50;99.90;;;;;;5091085;28;20052;-77
2023/03/21 09:49:34;;;;;;;17.23;9.45;;;9.50;99.90;;;;;;5088021;28;20051;-76
2023/03/21 09:52:08;;;;;;;18.02;10.43;;;9.50;99.90;;;;;;5082369;28;20060;-78
2023/03/21 09:54:41;;;;;;;17.33;10.23;;;9.50;99.90;;;;;;5090018;28;20048;-78
2023/03/21 09:57:33;;;;;;;20.38;10.52;;;9.60;99.90;;;;;;5059458;28;20052;-79
2023/03/21 10:00:15;;;;;;;18.92;10.48;;;9.70;99.90;;;;;;5077244;28;20105;-86
2023/03/21 10:02:46;;;;;;;16.40;10.13;;;9.70;99.90;;;;;;5088038;28;20056;-80
2023/03/21 10:05:29;;;;;;;16.98;10.10;;;9.70;99.90;;;;;;5091182;28;20056;-84
2023/03/21 10:07:54;;;;;;;18.35;11.00;;;9.70;99.90;;;;;;5087788;28;20044;-77
2023/03/21 10:10:28;;;;;;;15.80;9.73;;;9.80;99.90;;;;;;5090907;28;20571;-78
2023/03/21 10:12:55;;;;;;;17.30;10.38;;;9.70;99.90;;;;;;5089716;28;20051;-78
2023/03/21 10:15:24;;;;;;;15.40;9.55;;;9.70;99.90;;;;;;5089924;28;20044;-78
2023/03/21 10:18:00;;;;;;;17.80;9.20;;;9.70;99.90;;;;;;5090782;28;20558;-79
2023/03/21 10:20:36;;;;;;;18.85;11.27;;;9.70;99.90;;;;;;5091367;28;20469;-78
2023/03/21 10:23:11;;;;;;;15.95;9.90;;;9.70;99.90;;;;;;5091314;28;20036;-77
2023/03/21 10:25:43;;;;;;;16.13;9.70;;;9.70;99.90;;;;;;5090574;28;20084;-80
2023/03/21 10:28:15;;;;;;;15.45;10.20;;;9.70;99.90;;;;;;5061418;28;20050;-77
2023/03/21 10:30:45;;;;;;;15.63;9.73;;;9.70;99.90;;;;;;5090871;28;20424;-78
2023/03/21 10:33:19;;;;;;;17.70;11.25;;;9.70;99.90;;;;;;5090092;28;20079;-77
2023/03/21 10:35:51;;;;;;;15.00;10.95;;;9.70;99.90;;;;;;5090688;28;20564;-77
2023/03/21 10:38:19;;;;;;;16.83;10.68;;;9.70;99.90;;;;;;5089422;28;20388;-78
2023/03/21 10:40:45;;;;;;;18.98;11.00;;;9.70;99.90;;;;;;5089431;28;20507;-78
2023/03/21 10:43:33;;;;;;;18.83;9.77;;;9.80;99.90;;;;;;5090682;28;20499;-79
2023/03/21 10:46:05;;;;;;;14.55;10.63;;;9.80;99.90;;;;;;5090410;28;20078;-79
2023/03/21 10:48:38;;;;;;;17.75;10.18;;;9.80;99.90;;;;;;5089722;28;20394;-79
2023/03/21 10:51:07;;;;;;;16.67;9.48;;;9.80;99.90;;;;;;5090644;28;20127;-79
2023/03/21 10:53:37;;;;;;;13.32;9.75;;;9.80;99.90;;;;;;5090859;28;20047;-78
2023/03/21 10:56:10;;;;;;;16.65;11.15;;;9.80;99.90;;;;;;5071659;28;20450;-79
2023/03/21 10:58:45;;;;;;;15.05;9.48;;;9.80;99.90;;;;;;5089780;28;20450;-78
2023/03/21 11:01:16;;;;;;;14.63;9.70;;;9.80;99.90;;;;;;5045033;28;20044;-79
2023/03/21 11:03:45;;;;;;;12.23;8.82;;;9.80;99.90;;;;;;5090128;28;20059;-80
2023/03/21 11:06:11;;;;;;;13.40;8.88;;;9.80;99.90;;;;;;5090611;28;20048;-79
2023/03/21 11:08:45;;;;;;;13.77;10.00;;;9.80;99.90;;;;;;5090335;28;20050;-78
2023/03/21 11:11:28;;;;;;;14.18;8.45;;;9.80;99.90;;;;;;5056164;28;20044;-79
2023/03/21 11:14:00;;;;;;;17.13;9.80;;;9.90;99.90;;;;;;5090191;28;20126;-78
2023/03/21 11:16:39;;;;;;;14.48;8.73;;;9.90;99.90;;;;;;5090329;28;20500;-78
2023/03/21 11:19:25;;;;;;;13.60;8.82;;;9.90;99.90;;;;;;5078720;28;20091;-80
2023/03/21 11:21:51;;;;;;;15.13;8.87;;;10.00;99.90;;;;;;5093740;28;20058;-78
2023/03/21 11:24:18;;;;;;;13.85;8.85;;;10.00;99.90;;;;;;5094631;28;20115;-78
2023/03/21 11:26:48;;;;;;;12.75;9.20;;;10.10;99.90;;;;;;5093440;28;20101;-78
2023/03/21 11:29:37;;;;;;;11.93;7.65;;;10.10;99.90;;;;;;5088758;28;20052;-77
2023/03/21 11:32:11;;;;;;;15.07;8.15;;;10.10;99.90;;;;;;5081519;28;20044;-78
2023/03/21 11:34:44;;;;;;;13.05;8.30;;;10.10;99.90;;;;;;5094186;28;20070;-77
2023/03/21 11:37:27;;;;;;;12.88;8.15;;;10.20;99.90;;;;;;5093922;28;20131;-78
2023/03/21 11:40:20;;;;;;;12.13;7.13;;;10.30;99.90;;;;;;5090803;28;20048;-78
2023/03/21 11:43:22;;;;;;;14.18;7.57;;;10.40;99.90;;;;;;5093891;28;20135;-78
2023/03/21 11:46:07;;;;;;;9.50;6.70;;;10.50;99.90;;;;;;5092144;28;20113;-78
2023/03/21 11:48:40;;;;;;;8.85;6.32;;;10.60;99.90;;;;;;5093988;28;20051;-77
2023/03/21 11:51:35;;;;;;;9.57;7.28;;;10.70;99.90;;;;;;5093132;28;20500;-78
2023/03/21 11:54:13;;;;;;;10.10;5.88;;;10.70;99.90;;;;;;5092332;28;20048;-76
2023/03/21 11:56:51;;;;;;;9.57;6.13;;;10.80;99.90;;;;;;5093748;28;20052;-79
2023/03/21 11:59:28;;;;;;;8.80;5.50;;;10.80;99.90;;;;;;5092227;28;20059;-78
2023/03/21 12:02:10;;;;;;;9.07;5.57;;;10.80;99.90;;;;;;5092457;28;20293;-77
2023/03/21 12:04:40;;;;;;;8.07;5.43;;;10.80;99.90;;;;;;5092485;28;20117;-78
2023/03/21 12:07:33;;;;;;;10.02;5.70;;;10.80;99.90;;;;;;5065584;28;20094;-77
2023/03/21 12:10:02;;;;;;;10.40;6.40;;;10.80;99.90;;;;;;5093522;28;20052;-77
2023/03/21 12:13:00;;;;;;;7.90;4.65;;;10.90;99.90;;;;;;5093304;28;20043;-78
2023/03/21 12:15:37;;;;;;;9.57;5.70;;;10.90;99.90;;;;;;5084561;28;20037;-78
2023/03/21 12:18:41;;;;;;;8.52;4.70;;;10.90;99.90;;;;;;5092926;28;20048;-81
2023/03/21 12:21:18;;;;;;;7.63;4.60;;;10.90;99.90;;;;;;5020179;28;20107;-78
2023/03/21 12:24:02;;;;;;;9.93;6.03;;;11.00;99.90;;;;;;5093256;28;20056;-78
2023/03/21 12:26:59;;;;;;;7.65;4.90;;;11.10;99.90;;;;;;5092330;28;20497;-78
2023/03/21 12:29:59;;;;;;;7.07;4.63;;;11.20;99.90;;;;;;5085907;28;20040;-77
2023/03/21 12:32:51;;;;;;;8.95;4.88;;;11.20;99.90;;;;;;5091215;28;20064;-77
2023/03/21 12:35:34;;;;;;;10.75;4.70;;;11.30;99.90;;;;;;5092712;28;20059;-76
2023/03/21 12:38:07;;;;;;;7.32;4.43;;;11.40;99.90;;;;;;5086131;28;20048;-77
2023/03/21 12:40:39;;;;;;;9.38;4.90;;;11.30;99.90;;;;;;5092030;28;20048;-77
2023/03/21 12:43:17;;;;;;;7.55;4.88;;;11.30;99.90;;;;;;5087124;28;20040;-75
2023/03/21 12:45:47;;;;;;;6.40;5.10;;;11.20;99.90;;;;;;5084783;28;20473;-82
2023/03/21 12:48:23;;;;;;;7.93;4.65;;;11.20;99.90;;;;;;5083023;28;20051;-78
2023/03/21 12:50:51;;;;;;;7.40;5.00;;;11.30;99.90;;;;;;5075257;28;20048;-80
2023/03/21 12:53:38;;;;;;;8.63;5.40;;;11.30;99.90;;;;;;5088988;28;20048;-80
2023/03/21 12:56:09;;;;;;;7.30;4.82;;;11.40;99.90;;;;;;5085279;28;20052;-80
2023/03/21 12:58:46;;;;;;;8.02;4.65;;;11.40;99.90;;;;;;5086563;28;20123;-74
2023/03/21 13:01:14;;;;;;;7.03;4.15;;;11.40;99.90;;;;;;5076624;28;20047;-75
2023/03/21 13:04:09;;;;;;;6.30;4.65;;;11.30;99.90;;;;;;5089325;28;20067;-79
2023/03/21 13:06:37;;;;;;;6.90;4.63;;;11.30;99.90;;;;;;5084735;28;20043;-79
2023/03/21 13:09:17;;;;;;;6.57;4.10;;;11.30;99.90;;;;;;5090077;28;20052;-79